Accueil
METAR-TAF:

METAR-TAF

Aéroports :

Aéroport de Londres-Heathrow

Londres-Heathrow, Angleterre

latitude: 51-29N, longitude: 000-27W, altitude: 24 m

Observation

Le bulletin a été fait il y a 13 minutes, à 22:50 UTC
Vent 7 kt de ouest/sud-ouest
Température 17°C
Humidité 72%
Pression 1021 hPa
Visibilité 10 km ou plus

METAR: EGLL 172250Z AUTO 24007KT 9999 NCD 17/12 Q1021 NOSIG

Heure: 00:03 (23:03 UTC)

Prévision

Le bulletin a été fait il y a 6 heures et 2 minutes, à 17:01 UTC
Prévision valable du 17 à 18 UTC au 18 à 24 UTC
Vent 10 kt de ouest/sud-ouest
Visibilité 10 km ou plus
Nuages épars à une hauteur de 4800 ft
Probabilité 30% :
Temporairement
du 18 à 00 UTC au 18 à 07 UTC
Nuages fragmentés à une hauteur de 1400 ft

TAF: EGLL 171701Z 1718/1824 24010KT 9999 SCT048 PROB30 TEMPO 1800/1807 BKN014

Observations et prévisions météorologiques de plus de 4000 aéroports (messages METAR et TAF).

Les stations disponibles sont représentées par des disques jaunes et rouges sur la carte.

Passer la souris dessus pour voir le nom de la station.

Cliquer dessus pour voir les observations et prévisions météorologiques.

Pour changer de carte: cliquez sur les boutons verts avec une croix noire pour zoomer, sur le bouton vert avec un tiret pour effectuer un zoom arrière, ou sur les flèches vertes pour les cartes adjacentes.


METAR-TAF: